Time;durP1;ratioP1;P1;durP2;ratioP2;P2;SDS_P1;SDS_P2;PMS_P1;PMS_P2;Temp;Humidity;BMP_temperature;BMP_pressure;BME280_temperature;BME280_humidity;BME280_pressure;Samples;Min_cycle;Max_cycle;Signal;HPM_P1;HPM_P2
2022/10/20 00:01:34;;;;;;;6.25;5.15;;;;;;;;;;5054218;28;20079;-82
2022/10/20 00:04:00;;;;;;;7.95;5.05;;;;;;;;;;5054167;28;20047;-81
2022/10/20 00:06:27;;;;;;;8.82;5.60;;;;;;;;;;5057347;28;20084;-80
2022/10/20 00:08:54;;;;;;;9.10;4.78;;;;;;;;;;5044494;28;20032;-81
2022/10/20 00:11:21;;;;;;;7.43;4.90;;;;;;;;;;5042919;28;20056;-81
2022/10/20 00:13:48;;;;;;;7.93;5.07;;;;;;;;;;5061377;28;20021;-81
2022/10/20 00:16:14;;;;;;;7.47;4.40;;;;;;;;;;5048850;28;20089;-83
2022/10/20 00:18:43;;;;;;;7.47;5.50;;;;;;;;;;5043975;28;20431;-79
2022/10/20 00:21:10;;;;;;;9.05;4.85;;;;;;;;;;5058144;28;20032;-80
2022/10/20 00:23:36;;;;;;;7.20;5.20;;;;;;;;;;5032334;28;20025;-79
2022/10/20 00:26:07;;;;;;;8.25;4.80;;;;;;;;;;5018349;28;20033;-81
2022/10/20 00:28:33;;;;;;;8.00;4.80;;;;;;;;;;5035047;28;20491;-80
2022/10/20 00:30:59;;;;;;;5.10;4.57;;;;;;;;;;5026565;28;20032;-80
2022/10/20 00:33:26;;;;;;;7.45;4.78;;;;;;;;;;5035286;28;20092;-81
2022/10/20 00:38:33;;;;;;;9.75;4.97;;;;;;;;;;3201641;26;20130;-81
2022/10/20 00:41:06;;;;;;;8.77;4.47;;;;;;;;;;5082216;28;20021;-78
2022/10/20 00:43:43;;;;;;;7.32;4.40;;;;;;;;;;5070931;28;20021;-85
2022/10/20 00:46:10;;;;;;;10.85;4.65;;;;;;;;;;5089327;28;20021;-85
2022/10/20 00:48:38;;;;;;;8.68;4.25;;;;;;;;;;5096181;28;20032;-80
2022/10/20 00:51:05;;;;;;;9.93;4.30;;;;;;;;;;5080072;28;20024;-80
2022/10/20 00:53:31;;;;;;;8.73;4.78;;;;;;;;;;5060906;28;20082;-79
2022/10/20 00:55:57;;;;;;;11.82;5.47;;;;;;;;;;5061284;28;20044;-80
2022/10/20 00:58:24;;;;;;;9.60;5.15;;;;;;;;;;5048108;28;20028;-82
2022/10/20 01:00:53;;;;;;;14.00;5.00;;;;;;;;;;5079064;28;20024;-80
2022/10/20 01:03:26;;;;;;;13.20;4.78;;;;;;;;;;5083072;28;20024;-80
2022/10/20 01:05:55;;;;;;;6.35;4.45;;;;;;;;;;5064705;28;20090;-77
2022/10/20 01:08:21;;;;;;;11.48;5.85;;;;;;;;;;5080448;28;20020;-80
2022/10/20 01:10:55;;;;;;;6.70;4.30;;;;;;;;;;5072692;28;20486;-79
2022/10/20 01:13:35;;;;;;;9.52;4.45;;;;;;;;;;5073575;28;20312;-80
2022/10/20 01:16:03;;;;;;;10.63;4.80;;;;;;;;;;5055022;28;20028;-80
2022/10/20 01:18:49;;;;;;;12.10;4.88;;;;;;;;;;5074056;28;20086;-79
2022/10/20 01:21:28;;;;;;;4.97;3.70;;;;;;;;;;5057989;28;20079;-80
2022/10/20 01:24:13;;;;;;;9.75;4.35;;;;;;;;;;5067124;28;20406;-80
2022/10/20 01:26:45;;;;;;;11.23;4.40;;;;;;;;;;5060841;28;20039;-82
2022/10/20 01:29:19;;;;;;;10.82;4.25;;;;;;;;;;5061042;28;20398;-83
2022/10/20 01:31:57;;;;;;;10.30;5.78;;;;;;;;;;5062616;28;20016;-81
2022/10/20 01:34:26;;;;;;;12.02;5.65;;;;;;;;;;5067397;28;20021;-80
2022/10/20 01:36:58;;;;;;;10.70;6.15;;;;;;;;;;5081729;28;20062;-80
2022/10/20 01:39:31;;;;;;;10.55;5.22;;;;;;;;;;5082551;28;20036;-80
2022/10/20 01:42:03;;;;;;;10.60;5.50;;;;;;;;;;5060539;28;20036;-80
2022/10/20 01:44:30;;;;;;;11.05;5.28;;;;;;;;;;5047411;28;20032;-80
2022/10/20 01:46:57;;;;;;;14.02;6.65;;;;;;;;;;5083719;28;20033;-80
2022/10/20 01:49:28;;;;;;;13.07;7.35;;;;;;;;;;5086739;28;20099;-83
2022/10/20 01:51:57;;;;;;;11.70;6.55;;;;;;;;;;5069068;28;20031;-82
2022/10/20 01:54:27;;;;;;;33.03;8.80;;;;;;;;;;5081315;28;20048;-81
2022/10/20 01:57:02;;;;;;;9.73;7.07;;;;;;;;;;5065603;28;20009;-82
2022/10/20 01:59:46;;;;;;;28.60;7.97;;;;;;;;;;5056217;28;20020;-82
2022/10/20 02:02:24;;;;;;;19.88;6.80;;;;;;;;;;5078418;28;20046;-91
2022/10/20 02:04:53;;;;;;;34.03;7.32;;;;;;;;;;5067677;28;20033;-88
2022/10/20 02:07:41;;;;;;;22.67;7.90;;;;;;;;;;5083584;28;20024;-82
2022/10/20 02:10:20;;;;;;;41.40;7.80;;;;;;;;;;5073751;28;20029;-85
2022/10/20 02:12:48;;;;;;;23.25;7.07;;;;;;;;;;5078302;28;20024;-84
2022/10/20 02:15:18;;;;;;;33.17;7.95;;;;;;;;;;5077389;28;20475;-82
2022/10/20 02:17:46;;;;;;;22.73;7.38;;;;;;;;;;5088940;28;20031;-81
2022/10/20 02:20:12;;;;;;;53.35;7.50;;;;;;;;;;5066501;28;20017;-81
2022/10/20 02:22:40;;;;;;;40.15;8.20;;;;;;;;;;5073315;28;20029;-81
2022/10/20 02:25:06;;;;;;;47.42;8.90;;;;;;;;;;5064110;28;20451;-81
2022/10/20 02:27:34;;;;;;;36.60;8.65;;;;;;;;;;5086634;28;20107;-81
2022/10/20 02:30:03;;;;;;;28.95;8.00;;;;;;;;;;5069840;28;20013;-82
2022/10/20 02:32:31;;;;;;;34.17;7.65;;;;;;;;;;5087114;28;20047;-81
2022/10/20 02:34:57;;;;;;;15.40;6.90;;;;;;;;;;5081727;28;20032;-83
2022/10/20 02:37:23;;;;;;;30.38;8.15;;;;;;;;;;5055872;28;20032;-83
2022/10/20 02:39:49;;;;;;;12.60;6.93;;;;;;;;;;5067184;28;20509;-83
2022/10/20 02:42:16;;;;;;;17.90;8.02;;;;;;;;;;5086158;28;20497;-82
2022/10/20 02:44:42;;;;;;;14.60;7.38;;;;;;;;;;5059543;28;20029;-85
2022/10/20 02:47:08;;;;;;;19.70;7.38;;;;;;;;;;5068833;28;20060;-86
2022/10/20 02:49:34;;;;;;;31.05;9.48;;;;;;;;;;5082137;28;20032;-89
2022/10/20 02:52:21;;;;;;;30.88;9.20;;;;;;;;;;5081491;28;20032;-84
2022/10/20 02:54:50;;;;;;;17.52;9.60;;;;;;;;;;5080960;28;20086;-88
2022/10/20 02:57:18;;;;;;;26.73;9.68;;;;;;;;;;5082195;28;20032;-88
2022/10/20 02:59:47;;;;;;;19.50;8.88;;;;;;;;;;5096839;28;20013;-89
2022/10/20 03:02:13;;;;;;;14.80;8.77;;;;;;;;;;5099313;28;20016;-89
2022/10/20 03:04:39;;;;;;;33.17;10.27;;;;;;;;;;5065835;28;20028;-82
2022/10/20 03:07:05;;;;;;;21.67;9.52;;;;;;;;;;5078310;28;20521;-82
2022/10/20 03:09:31;;;;;;;30.08;9.07;;;;;;;;;;5077974;28;20029;-83
2022/10/20 03:11:57;;;;;;;14.68;9.15;;;;;;;;;;5078033;28;20019;-85
2022/10/20 03:14:23;;;;;;;38.70;11.30;;;;;;;;;;5078382;28;20021;-82
2022/10/20 03:16:52;;;;;;;12.13;8.38;;;;;;;;;;5078288;28;20103;-84
2022/10/20 03:19:18;;;;;;;12.70;9.52;;;;;;;;;;5061015;28;20041;-82
2022/10/20 03:21:45;;;;;;;21.80;10.60;;;;;;;;;;5081841;28;20085;-82
2022/10/20 03:24:11;;;;;;;11.27;9.07;;;;;;;;;;5085198;28;20033;-84
2022/10/20 03:26:40;;;;;;;14.57;10.07;;;;;;;;;;5092746;28;20057;-86
2022/10/20 03:29:06;;;;;;;11.55;8.80;;;;;;;;;;5075433;28;20005;-86
2022/10/20 03:31:32;;;;;;;14.30;8.25;;;;;;;;;;5095089;28;20036;-82
2022/10/20 03:33:58;;;;;;;11.95;8.57;;;;;;;;;;5094156;28;20025;-83
2022/10/20 03:36:24;;;;;;;13.23;8.57;;;;;;;;;;5094956;28;20394;-84
2022/10/20 03:38:50;;;;;;;10.48;8.32;;;;;;;;;;5081654;28;20025;-81
2022/10/20 03:44:31;;;;;;;15.55;9.07;;;;;;;;;;5092403;28;20502;-82
2022/10/20 03:47:17;;;;;;;11.35;8.02;;;;;;;;;;5084762;28;20074;-81
2022/10/20 03:49:43;;;;;;;12.45;9.68;;;;;;;;;;5069164;28;20500;-81
2022/10/20 03:52:09;;;;;;;11.88;9.02;;;;;;;;;;5067239;28;20013;-80
2022/10/20 03:54:36;;;;;;;15.13;8.98;;;;;;;;;;5065578;28;20021;-81
2022/10/20 03:57:02;;;;;;;13.80;8.77;;;;;;;;;;5085577;28;20025;-81
2022/10/20 03:59:28;;;;;;;15.38;9.55;;;;;;;;;;5067718;28;20035;-81
2022/10/20 04:01:54;;;;;;;15.70;9.48;;;;;;;;;;5086302;28;20017;-81
2022/10/20 04:04:20;;;;;;;17.83;9.02;;;;;;;;;;5053172;28;20123;-82
2022/10/20 04:06:46;;;;;;;13.25;8.85;;;;;;;;;;5060561;28;20580;-82
2022/10/20 04:09:12;;;;;;;13.20;9.15;;;;;;;;;;5053834;28;20415;-82
2022/10/20 04:11:38;;;;;;;14.93;8.02;;;;;;;;;;5066435;28;20025;-81
2022/10/20 04:14:04;;;;;;;18.90;9.27;;;;;;;;;;5070611;28;20082;-81
2022/10/20 04:16:30;;;;;;;14.30;8.43;;;;;;;;;;5088645;28;20027;-81
2022/10/20 04:18:56;;;;;;;13.10;8.90;;;;;;;;;;5070786;28;20071;-84
2022/10/20 04:21:25;;;;;;;13.73;9.07;;;;;;;;;;5075501;28;20033;-83
2022/10/20 04:23:51;;;;;;;14.18;8.68;;;;;;;;;;5070825;28;20025;-81
2022/10/20 04:26:19;;;;;;;10.32;7.65;;;;;;;;;;5073449;28;20077;-84
2022/10/20 04:28:45;;;;;;;14.07;8.18;;;;;;;;;;5067493;28;20031;-81
2022/10/20 04:31:11;;;;;;;11.80;8.48;;;;;;;;;;5068360;28;20031;-80
2022/10/20 04:33:37;;;;;;;13.68;8.10;;;;;;;;;;5054576;28;20025;-80
2022/10/20 04:36:08;;;;;;;14.70;9.25;;;;;;;;;;5063410;28;20032;-79
2022/10/20 04:38:34;;;;;;;15.18;9.40;;;;;;;;;;5072996;28;20139;-79
2022/10/20 04:41:03;;;;;;;13.45;9.55;;;;;;;;;;5061892;28;20033;-78
2022/10/20 04:43:29;;;;;;;13.68;8.80;;;;;;;;;;5071883;28;20041;-82
2022/10/20 04:46:01;;;;;;;14.85;9.25;;;;;;;;;;5059883;22;20040;-80
2022/10/20 04:48:27;;;;;;;16.90;9.82;;;;;;;;;;5067804;28;20029;-82
2022/10/20 04:51:04;;;;;;;14.63;9.55;;;;;;;;;;5071915;28;20028;-82
2022/10/20 04:53:38;;;;;;;15.68;9.40;;;;;;;;;;5056730;28;20483;-81
2022/10/20 04:56:05;;;;;;;15.30;8.73;;;;;;;;;;5054003;28;20037;-82
2022/10/20 04:58:37;;;;;;;12.73;8.73;;;;;;;;;;5062722;28;20486;-81
2022/10/20 05:01:07;;;;;;;17.63;9.82;;;;;;;;;;5072543;22;20102;-77
2022/10/20 05:03:34;;;;;;;14.88;9.77;;;;;;;;;;5036961;28;20524;-78
2022/10/20 05:06:08;;;;;;;15.48;10.10;;;;;;;;;;5051225;28;20036;-77
2022/10/20 05:08:34;;;;;;;17.30;10.68;;;;;;;;;;5050587;28;20036;-78
2022/10/20 05:11:03;;;;;;;18.48;10.48;;;;;;;;;;5051294;28;20018;-77
2022/10/20 05:13:29;;;;;;;18.50;10.02;;;;;;;;;;5051559;28;20021;-78
2022/10/20 05:15:55;;;;;;;13.80;9.73;;;;;;;;;;5055727;28;20030;-77
2022/10/20 05:18:21;;;;;;;17.00;10.35;;;;;;;;;;5055025;28;20482;-77
2022/10/20 05:20:47;;;;;;;16.77;10.45;;;;;;;;;;5056133;28;20024;-78
2022/10/20 05:23:13;;;;;;;16.95;11.38;;;;;;;;;;5054206;28;20028;-78
2022/10/20 05:25:39;;;;;;;21.50;12.23;;;;;;;;;;5049444;28;20032;-78
2022/10/20 05:28:05;;;;;;;15.40;10.80;;;;;;;;;;5057500;28;20021;-78
2022/10/20 05:30:34;;;;;;;18.77;12.02;;;;;;;;;;5049932;28;20091;-77
2022/10/20 05:33:00;;;;;;;18.73;11.65;;;;;;;;;;5058849;28;20036;-77
2022/10/20 05:35:27;;;;;;;17.52;11.60;;;;;;;;;;5055390;28;20021;-75
2022/10/20 05:37:53;;;;;;;17.35;11.05;;;;;;;;;;5055478;28;20494;-77
2022/10/20 05:40:19;;;;;;;17.75;12.10;;;;;;;;;;5054965;28;20530;-77
2022/10/20 05:42:45;;;;;;;23.35;12.10;;;;;;;;;;5055139;28;20106;-77
2022/10/20 05:45:11;;;;;;;23.98;13.50;;;;;;;;;;5054745;28;20491;-77
2022/10/20 05:47:37;;;;;;;22.63;13.60;;;;;;;;;;5054398;28;20115;-77
2022/10/20 05:50:03;;;;;;;23.35;13.55;;;;;;;;;;5049773;28;20032;-76
2022/10/20 05:52:29;;;;;;;21.92;13.13;;;;;;;;;;5045680;28;20367;-77
2022/10/20 05:54:55;;;;;;;20.73;12.88;;;;;;;;;;5054763;28;20024;-78
2022/10/20 05:57:21;;;;;;;27.40;14.50;;;;;;;;;;5054199;28;20493;-76
2022/10/20 05:59:47;;;;;;;26.15;14.95;;;;;;;;;;5054687;28;20182;-76
2022/10/20 06:02:13;;;;;;;27.77;16.23;;;;;;;;;;5054321;28;20028;-76
2022/10/20 06:04:39;;;;;;;29.42;17.33;;;;;;;;;;5054155;28;20028;-76
2022/10/20 06:07:08;;;;;;;28.08;14.93;;;;;;;;;;5054411;28;20029;-76
2022/10/20 06:09:34;;;;;;;21.17;12.98;;;;;;;;;;5054336;28;20013;-77
2022/10/20 06:12:00;;;;;;;14.27;9.93;;;;;;;;;;5054177;28;20090;-76
2022/10/20 06:14:26;;;;;;;14.98;11.15;;;;;;;;;;5054135;28;20445;-76
2022/10/20 06:16:53;;;;;;;13.43;9.48;;;;;;;;;;5047751;28;20017;-77
2022/10/20 06:19:19;;;;;;;16.58;9.45;;;;;;;;;;5054417;28;20055;-78
2022/10/20 06:21:45;;;;;;;14.95;9.20;;;;;;;;;;5046563;28;20072;-77
2022/10/20 06:24:12;;;;;;;12.98;8.27;;;;;;;;;;5052443;28;20398;-78
2022/10/20 06:26:42;;;;;;;13.30;8.07;;;;;;;;;;5044185;28;20025;-78
2022/10/20 06:29:12;;;;;;;9.33;6.63;;;;;;;;;;5053938;28;20118;-78
2022/10/20 06:31:42;;;;;;;9.82;7.30;;;;;;;;;;5053432;28;20013;-78
2022/10/20 06:34:11;;;;;;;9.88;6.93;;;;;;;;;;5054000;28;20017;-79
2022/10/20 06:36:38;;;;;;;10.95;7.20;;;;;;;;;;5054655;28;20367;-78
2022/10/20 06:39:06;;;;;;;12.00;6.85;;;;;;;;;;5049441;28;20486;-78
2022/10/20 06:41:32;;;;;;;8.63;6.82;;;;;;;;;;5044771;28;20039;-77
2022/10/20 06:43:58;;;;;;;12.73;7.78;;;;;;;;;;5054639;28;20135;-76
2022/10/20 06:46:25;;;;;;;13.90;8.45;;;;;;;;;;5054923;28;20029;-76
2022/10/20 06:48:51;;;;;;;10.57;8.23;;;;;;;;;;5055121;28;20474;-76
2022/10/20 06:51:20;;;;;;;12.32;8.07;;;;;;;;;;5055664;28;20021;-77
2022/10/20 06:53:46;;;;;;;12.35;8.88;;;;;;;;;;5056552;28;20443;-75
2022/10/20 06:56:14;;;;;;;13.77;9.38;;;;;;;;;;5041490;28;20029;-77
2022/10/20 06:58:41;;;;;;;15.50;8.48;;;;;;;;;;5054344;28;20055;-75
2022/10/20 07:01:17;;;;;;;13.63;9.18;;;;;;;;;;5047148;28;20072;-75
2022/10/20 07:03:44;;;;;;;13.23;9.55;;;;;;;;;;5035435;28;20025;-75
2022/10/20 07:06:12;;;;;;;13.65;8.85;;;;;;;;;;5053548;28;20029;-75
2022/10/20 07:08:38;;;;;;;13.90;9.00;;;;;;;;;;5053189;28;20047;-76
2022/10/20 07:11:06;;;;;;;12.38;8.25;;;;;;;;;;5053393;28;20017;-76
2022/10/20 07:13:33;;;;;;;13.60;8.48;;;;;;;;;;5052750;28;20109;-76
2022/10/20 07:15:59;;;;;;;15.52;8.55;;;;;;;;;;5052815;28;20029;-75
2022/10/20 07:18:26;;;;;;;12.05;8.70;;;;;;;;;;5052456;28;20027;-75
2022/10/20 07:20:55;;;;;;;13.10;8.27;;;;;;;;;;5052754;28;20456;-75
2022/10/20 07:23:21;;;;;;;14.23;9.00;;;;;;;;;;5052320;28;20083;-75
2022/10/20 07:25:47;;;;;;;11.75;8.93;;;;;;;;;;5052699;28;20037;-75
2022/10/20 07:28:20;;;;;;;13.70;7.80;;;;;;;;;;5050953;28;20069;-78
2022/10/20 07:30:47;;;;;;;11.65;7.60;;;;;;;;;;5047862;28;20025;-79
2022/10/20 07:33:13;;;;;;;15.10;8.93;;;;;;;;;;5050916;28;20510;-77
2022/10/20 07:35:41;;;;;;;14.90;8.85;;;;;;;;;;5051550;28;20033;-79
2022/10/20 07:38:09;;;;;;;15.40;9.13;;;;;;;;;;5056735;28;20068;-80
2022/10/20 07:40:36;;;;;;;10.10;7.30;;;;;;;;;;5050557;28;20036;-80
2022/10/20 07:43:02;;;;;;;15.02;8.70;;;;;;;;;;5059251;28;20029;-80
2022/10/20 07:45:28;;;;;;;11.38;7.60;;;;;;;;;;5062237;28;20048;-78
2022/10/20 07:47:54;;;;;;;9.93;6.35;;;;;;;;;;5054653;28;20021;-79
2022/10/20 07:50:20;;;;;;;10.20;6.93;;;;;;;;;;5055532;28;20411;-80
2022/10/20 07:52:49;;;;;;;10.13;6.57;;;;;;;;;;5056094;28;20100;-79
2022/10/20 07:55:17;;;;;;;8.77;6.63;;;;;;;;;;5053013;28;20103;-78
2022/10/20 07:57:43;;;;;;;9.77;6.25;;;;;;;;;;5053210;28;20029;-78
2022/10/20 08:00:10;;;;;;;15.93;6.50;;;;;;;;;;5051670;28;20051;-79
2022/10/20 08:02:36;;;;;;;11.80;5.53;;;;;;;;;;5055415;28;20083;-78
2022/10/20 08:05:02;;;;;;;8.85;5.03;;;;;;;;;;5052353;28;20442;-78
2022/10/20 08:07:28;;;;;;;9.50;4.63;;;;;;;;;;5052642;28;20028;-76
2022/10/20 08:09:54;;;;;;;7.65;4.70;;;;;;;;;;5047634;28;20036;-79
2022/10/20 08:12:20;;;;;;;7.85;4.93;;;;;;;;;;5054461;28;20013;-76
2022/10/20 08:14:46;;;;;;;13.38;5.40;;;;;;;;;;5053962;28;20025;-79
2022/10/20 08:17:17;;;;;;;7.70;3.92;;;;;;;;;;5055950;28;20060;-80
2022/10/20 08:19:43;;;;;;;7.13;4.22;;;;;;;;;;5059970;28;20056;-79
2022/10/20 08:22:10;;;;;;;5.82;3.30;;;;;;;;;;5060430;28;20040;-79
2022/10/20 08:24:38;;;;;;;6.65;3.58;;;;;;;;;;5063132;28;20494;-80
2022/10/20 08:27:04;;;;;;;5.70;3.30;;;;;;;;;;5045035;28;20096;-78
2022/10/20 08:29:33;;;;;;;4.00;3.05;;;;;;;;;;5052108;28;20028;-79
2022/10/20 08:32:02;;;;;;;4.90;2.60;;;;;;;;;;5044517;22;20064;-79
2022/10/20 08:34:28;;;;;;;5.78;3.72;;;;;;;;;;5060326;28;20017;-78
2022/10/20 08:36:57;;;;;;;5.22;3.05;;;;;;;;;;5051681;28;20028;-78
2022/10/20 08:39:23;;;;;;;7.07;3.13;;;;;;;;;;5034288;28;20150;-78
2022/10/20 08:41:49;;;;;;;7.28;2.85;;;;;;;;;;5048148;28;20016;-78
2022/10/20 08:44:38;;;;;;;7.15;3.05;;;;;;;;;;5073270;23;20052;-77
2022/10/20 08:47:07;;;;;;;6.45;2.88;;;;;;;;;;5031477;28;20407;-78
2022/10/20 08:49:43;;;;;;;10.02;2.40;;;;;;;;;;5030733;28;20017;-78
2022/10/20 08:52:13;;;;;;;5.53;2.50;;;;;;;;;;5031966;28;20017;-78
2022/10/20 08:54:40;;;;;;;6.13;2.55;;;;;;;;;;5043807;28;20045;-78
2022/10/20 08:57:35;;;;;;;5.28;2.70;;;;;;;;;;5033763;28;20071;-78
2022/10/20 09:00:13;;;;;;;4.55;2.95;;;;;;;;;;5027978;28;20029;-78
2022/10/20 09:02:39;;;;;;;5.90;2.70;;;;;;;;;;5053174;28;20025;-79
2022/10/20 09:05:14;;;;;;;5.50;2.35;;;;;;;;;;5052721;28;20021;-80
2022/10/20 09:07:43;;;;;;;4.78;2.47;;;;;;;;;;5053297;28;20112;-77
2022/10/20 09:10:16;;;;;;;21.75;3.72;;;;;;;;;;5052714;28;20009;-80
2022/10/20 09:12:43;;;;;;;14.63;2.83;;;;;;;;;;5035849;28;20021;-79
2022/10/20 09:15:13;;;;;;;5.88;2.55;;;;;;;;;;5054442;28;20021;-83
2022/10/20 09:17:44;;;;;;;4.70;1.95;;;;;;;;;;5036906;28;20380;-81
2022/10/20 09:20:20;;;;;;;12.95;2.63;;;;;;;;;;5057491;28;20498;-78
2022/10/20 09:22:47;;;;;;;6.93;2.90;;;;;;;;;;5034997;28;20116;-78
2022/10/20 09:25:15;;;;;;;5.07;2.70;;;;;;;;;;5034475;28;20115;-78
2022/10/20 09:27:43;;;;;;;4.60;2.53;;;;;;;;;;5052534;28;20060;-83
2022/10/20 09:30:16;;;;;;;8.27;2.58;;;;;;;;;;5053522;28;20536;-78
2022/10/20 09:32:42;;;;;;;6.72;2.90;;;;;;;;;;5035370;28;20483;-78
2022/10/20 09:35:28;;;;;;;7.18;2.80;;;;;;;;;;5048354;28;20013;-83
2022/10/20 09:37:57;;;;;;;4.80;3.00;;;;;;;;;;5072372;28;20085;-83
2022/10/20 09:40:26;;;;;;;7.32;2.42;;;;;;;;;;5073085;28;20048;-88
2022/10/20 09:42:54;;;;;;;9.25;3.40;;;;;;;;;;5072574;28;20021;-84
2022/10/20 09:45:21;;;;;;;8.32;3.03;;;;;;;;;;5055903;28;20072;-82
2022/10/20 09:47:50;;;;;;;2.65;1.98;;;;;;;;;;5049412;28;20446;-79
2022/10/20 09:50:19;;;;;;;7.97;2.50;;;;;;;;;;5053088;28;20021;-79
2022/10/20 09:52:48;;;;;;;5.50;2.85;;;;;;;;;;5036082;28;20032;-79
2022/10/20 09:55:28;;;;;;;10.05;3.20;;;;;;;;;;5052233;28;20013;-80
2022/10/20 09:57:56;;;;;;;7.88;2.67;;;;;;;;;;5053175;28;20495;-82
2022/10/20 10:00:27;;;;;;;6.97;2.50;;;;;;;;;;5053888;28;20029;-79
2022/10/20 10:03:08;;;;;;;3.80;2.25;;;;;;;;;;5055826;28;20112;-79
2022/10/20 10:05:40;;;;;;;9.30;3.28;;;;;;;;;;5055207;28;20033;-79
2022/10/20 10:08:12;;;;;;;9.95;2.78;;;;;;;;;;5054436;28;20033;-79
2022/10/20 10:10:38;;;;;;;6.25;2.42;;;;;;;;;;5054540;28;20104;-78
2022/10/20 10:13:04;;;;;;;5.70;2.30;;;;;;;;;;5054195;28;20059;-79
2022/10/20 10:15:40;;;;;;;5.00;2.05;;;;;;;;;;5056068;28;20025;-78
2022/10/20 10:18:13;;;;;;;5.07;2.10;;;;;;;;;;5059944;28;20036;-81
2022/10/20 10:20:40;;;;;;;6.82;2.25;;;;;;;;;;5073375;28;20025;-81
2022/10/20 10:23:09;;;;;;;4.70;1.80;;;;;;;;;;5061594;28;20032;-79
2022/10/20 10:25:35;;;;;;;6.05;1.80;;;;;;;;;;5039959;28;20108;-77
2022/10/20 10:28:05;;;;;;;6.97;2.10;;;;;;;;;;5055425;28;20029;-77
2022/10/20 10:30:32;;;;;;;11.27;2.40;;;;;;;;;;5055773;28;20027;-78
2022/10/20 10:32:58;;;;;;;2.88;2.00;;;;;;;;;;5053849;28;20036;-78
2022/10/20 10:35:24;;;;;;;2.17;1.70;;;;;;;;;;5053327;28;20036;-79
2022/10/20 10:37:51;;;;;;;5.93;2.08;;;;;;;;;;5053494;28;20024;-79
2022/10/20 10:40:19;;;;;;;3.42;2.25;;;;;;;;;;5053214;28;20032;-79
2022/10/20 10:42:45;;;;;;;5.15;2.10;;;;;;;;;;5054137;28;20044;-78
2022/10/20 10:45:31;;;;;;;3.75;2.10;;;;;;;;;;5033076;28;109182;-78
2022/10/20 10:48:15;;;;;;;3.92;1.60;;;;;;;;;;5047489;28;20029;-82
2022/10/20 10:50:41;;;;;;;5.13;2.25;;;;;;;;;;5054303;28;20063;-78
2022/10/20 10:53:19;;;;;;;3.75;2.28;;;;;;;;;;5055045;28;20127;-79
2022/10/20 10:55:45;;;;;;;5.07;2.20;;;;;;;;;;5058965;28;20036;-79
2022/10/20 10:58:23;;;;;;;5.05;1.95;;;;;;;;;;5057371;28;20029;-79
2022/10/20 11:00:57;;;;;;;8.32;2.30;;;;;;;;;;5040498;28;20043;-79
2022/10/20 11:03:22;;;;;;;8.50;4.10;;;;;;;;;;5057168;28;20032;-79
2022/10/20 11:06:09;;;;;;;6.95;2.20;;;;;;;;;;5056354;28;20025;-79
2022/10/20 11:08:46;;;;;;;3.08;2.25;;;;;;;;;;5057273;28;20031;-81
2022/10/20 11:11:27;;;;;;;2.60;2.03;;;;;;;;;;5055318;28;20108;-79
2022/10/20 11:13:59;;;;;;;4.70;2.42;;;;;;;;;;5043555;28;20021;-77
2022/10/20 11:16:38;;;;;;;6.03;2.10;;;;;;;;;;5053973;28;20499;-81
2022/10/20 11:19:23;;;;;;;4.70;2.10;;;;;;;;;;5052809;28;20021;-79
2022/10/20 11:22:07;;;;;;;4.03;1.55;;;;;;;;;;5053304;28;20020;-79
2022/10/20 11:24:48;;;;;;;7.22;2.08;;;;;;;;;;5053057;28;20499;-78
2022/10/20 11:27:20;;;;;;;4.28;2.20;;;;;;;;;;5043354;28;20021;-78
2022/10/20 11:29:49;;;;;;;3.53;2.33;;;;;;;;;;5052840;28;20553;-78
2022/10/20 11:32:21;;;;;;;3.42;2.25;;;;;;;;;;5056131;28;20017;-79
2022/10/20 11:35:02;;;;;;;3.78;2.15;;;;;;;;;;5035836;28;20028;-82
2022/10/20 11:37:30;;;;;;;6.90;2.38;;;;;;;;;;5036814;28;20021;-81
2022/10/20 11:40:09;;;;;;;6.40;2.15;;;;;;;;;;5040146;28;20491;-79
2022/10/20 11:42:56;;;;;;;7.10;2.28;;;;;;;;;;5067053;28;20016;-80
2022/10/20 11:45:25;;;;;;;7.25;2.10;;;;;;;;;;5042070;28;20483;-79
2022/10/20 11:47:56;;;;;;;4.82;2.50;;;;;;;;;;5036102;28;20116;-79
2022/10/20 11:50:22;;;;;;;5.55;2.50;;;;;;;;;;5035986;28;20036;-80
2022/10/20 11:52:54;;;;;;;4.53;2.17;;;;;;;;;;5056333;28;20418;-79
2022/10/20 11:55:47;;;;;;;4.60;2.25;;;;;;;;;;5038515;28;20116;-79
2022/10/20 11:58:30;;;;;;;4.68;1.98;;;;;;;;;;5037624;28;20025;-77
2022/10/20 12:00:56;;;;;;;3.75;2.00;;;;;;;;;;5044285;28;20029;-79
2022/10/20 12:03:25;;;;;;;5.32;2.15;;;;;;;;;;5054077;28;20025;-79
2022/10/20 12:05:51;;;;;;;5.80;2.45;;;;;;;;;;5037427;28;20077;-79
2022/10/20 12:08:33;;;;;;;7.00;2.53;;;;;;;;;;5058109;28;20029;-78
2022/10/20 12:11:08;;;;;;;10.30;3.58;;;;;;;;;;5054482;28;20094;-80
2022/10/20 12:13:40;;;;;;;4.80;2.50;;;;;;;;;;5035113;28;20542;-79
2022/10/20 12:16:07;;;;;;;6.97;2.47;;;;;;;;;;5037230;28;20076;-79
2022/10/20 12:18:34;;;;;;;7.03;2.78;;;;;;;;;;5037958;28;20051;-80
2022/10/20 12:21:04;;;;;;;11.35;2.85;;;;;;;;;;5039328;28;20021;-82
2022/10/20 12:23:47;;;;;;;3.60;2.45;;;;;;;;;;5038305;28;20039;-80
2022/10/20 12:26:31;;;;;;;4.00;2.58;;;;;;;;;;5037774;28;20036;-79
2022/10/20 12:29:16;;;;;;;7.25;2.78;;;;;;;;;;5055819;28;20474;-79
2022/10/20 12:32:01;;;;;;;6.47;2.70;;;;;;;;;;5038112;28;20028;-79
2022/10/20 12:34:37;;;;;;;7.03;2.88;;;;;;;;;;5047759;28;20025;-80
2022/10/20 12:37:25;;;;;;;4.82;2.97;;;;;;;;;;5037653;28;20021;-78
2022/10/20 12:39:53;;;;;;;9.77;2.85;;;;;;;;;;5039179;28;20473;-80
2022/10/20 12:42:25;;;;;;;4.97;2.63;;;;;;;;;;5037855;28;20029;-81
2022/10/20 12:45:04;;;;;;;4.57;2.50;;;;;;;;;;5052174;28;20029;-80
2022/10/20 12:47:32;;;;;;;11.80;3.67;;;;;;;;;;5035628;28;20028;-78
2022/10/20 12:50:00;;;;;;;5.03;2.70;;;;;;;;;;5036066;28;20032;-79
2022/10/20 12:52:28;;;;;;;5.70;2.70;;;;;;;;;;5058499;28;20028;-81
2022/10/20 12:54:57;;;;;;;9.70;3.03;;;;;;;;;;5059985;28;20013;-78
2022/10/20 12:57:29;;;;;;;6.97;2.70;;;;;;;;;;5056961;28;20028;-79
2022/10/20 12:59:56;;;;;;;4.82;2.85;;;;;;;;;;5056361;28;20210;-82
2022/10/20 13:02:22;;;;;;;4.18;2.67;;;;;;;;;;5059010;28;20431;-79
2022/10/20 13:04:55;;;;;;;3.95;2.85;;;;;;;;;;5059843;28;20084;-79
2022/10/20 13:07:39;;;;;;;5.43;2.80;;;;;;;;;;5062337;28;20013;-80
2022/10/20 13:10:28;;;;;;;7.22;3.47;;;;;;;;;;5054564;28;20053;-78
2022/10/20 13:13:01;;;;;;;7.38;3.38;;;;;;;;;;5043556;28;20491;-80
2022/10/20 13:15:37;;;;;;;7.82;3.78;;;;;;;;;;5044929;28;20033;-80
2022/10/20 13:18:03;;;;;;;9.18;3.40;;;;;;;;;;5058943;28;20438;-79
2022/10/20 13:20:48;;;;;;;6.43;3.55;;;;;;;;;;5055604;28;20025;-80
2022/10/20 13:23:25;;;;;;;7.78;4.25;;;;;;;;;;5057425;28;20078;-84
2022/10/20 13:25:57;;;;;;;9.68;4.68;;;;;;;;;;5056614;28;20021;-77
2022/10/20 13:28:24;;;;;;;6.68;4.55;;;;;;;;;;5040152;28;20037;-80
2022/10/20 13:31:10;;;;;;;15.93;5.68;;;;;;;;;;5041596;28;20048;-81
2022/10/20 13:33:48;;;;;;;8.93;4.97;;;;;;;;;;5042901;28;20049;-81
2022/10/20 13:36:33;;;;;;;8.55;5.22;;;;;;;;;;5067157;28;20024;-81
2022/10/20 13:39:05;;;;;;;9.43;5.25;;;;;;;;;;5054532;28;20029;-80
2022/10/20 13:41:39;;;;;;;11.20;6.03;;;;;;;;;;5061977;28;20049;-77
2022/10/20 13:44:20;;;;;;;8.52;5.82;;;;;;;;;;5040750;28;20040;-79
2022/10/20 13:47:05;;;;;;;13.82;7.03;;;;;;;;;;5040148;28;20166;-79
2022/10/20 13:49:40;;;;;;;12.10;5.97;;;;;;;;;;5061296;28;20560;-78
2022/10/20 13:52:10;;;;;;;11.48;5.97;;;;;;;;;;5038507;28;20112;-79
2022/10/20 13:54:37;;;;;;;9.43;6.05;;;;;;;;;;5056106;28;20036;-79
2022/10/20 13:57:03;;;;;;;12.50;6.45;;;;;;;;;;5063884;28;20021;-81
2022/10/20 13:59:30;;;;;;;12.82;7.13;;;;;;;;;;5061136;28;20110;-77
2022/10/20 14:01:57;;;;;;;10.40;6.93;;;;;;;;;;5065044;28;20084;-83
2022/10/20 14:04:28;;;;;;;17.33;7.30;;;;;;;;;;5060671;28;20041;-79
2022/10/20 14:06:54;;;;;;;11.73;6.83;;;;;;;;;;5060514;28;20033;-80
2022/10/20 14:09:22;;;;;;;13.82;6.90;;;;;;;;;;5040293;28;20275;-79
2022/10/20 14:11:54;;;;;;;14.13;7.47;;;;;;;;;;5037993;28;20128;-78
2022/10/20 14:14:22;;;;;;;13.35;6.88;;;;;;;;;;5055807;28;20024;-81
2022/10/20 14:16:53;;;;;;;18.98;8.75;;;;;;;;;;5055778;28;20013;-79
2022/10/20 14:19:26;;;;;;;15.07;8.27;;;;;;;;;;5044236;28;20441;-80
2022/10/20 14:21:56;;;;;;;12.80;7.38;;;;;;;;;;5046112;28;20021;-81
2022/10/20 14:24:37;;;;;;;12.98;7.22;;;;;;;;;;5057366;28;20052;-79
2022/10/20 14:27:04;;;;;;;11.95;8.15;;;;;;;;;;5055637;28;20017;-84
2022/10/20 14:29:50;;;;;;;10.63;7.30;;;;;;;;;;5063733;28;20080;-80
2022/10/20 14:32:20;;;;;;;13.43;8.77;;;;;;;;;;5030249;28;20506;-79
2022/10/20 14:35:12;;;;;;;12.65;7.55;;;;;;;;;;5037430;28;20027;-79
2022/10/20 14:37:41;;;;;;;10.52;7.95;;;;;;;;;;5034206;28;20037;-79
2022/10/20 14:40:17;;;;;;;14.43;8.07;;;;;;;;;;5039089;28;20032;-81
2022/10/20 14:42:49;;;;;;;15.05;8.75;;;;;;;;;;5042427;28;20032;-81
2022/10/20 14:45:25;;;;;;;11.85;9.15;;;;;;;;;;5061793;28;20025;-79
2022/10/20 14:47:52;;;;;;;15.82;8.32;;;;;;;;;;5044113;28;20025;-80
2022/10/20 14:50:32;;;;;;;13.80;9.60;;;;;;;;;;5042674;28;20017;-82
2022/10/20 14:53:15;;;;;;;9.87;6.30;;;;;;;;;;5036239;28;20028;-79
2022/10/20 14:55:41;;;;;;;17.10;9.07;;;;;;;;;;5042819;28;20259;-81
2022/10/20 14:58:26;;;;;;;13.90;10.13;;;;;;;;;;5057963;28;20032;-79